AAR7985 RJAA-RKSI
Flight info
| Callsign | AAR7985 |
|---|---|
| Flight time | N/A |
| Altitude | 30000 |
| Route | ENPAR Y16 SAPRA Y685 GUKDO |
| Aircraft | B763/H-V/N |
Departure
| Time | 2026-05-05 07:14 |
|---|---|
| Airport | Narita International Airport (RJAA) |
Arrival
| Time | N/A |
|---|---|
| Airport | Incheon International Airport (RKSI) |
| Time | Latitude | Longitude | Altitude | Speed | Heading |
|---|---|---|---|---|---|
| 2026-05-05 07:08 | 35.76991 | 140.37795 | 134 ft | 0 kts | 329° |
| 2026-05-05 07:09 | 35.76999 | 140.37788 | 134 ft | 4 kts | 329° |
| 2026-05-05 07:10 | 35.77038 | 140.37761 | 135 ft | 8 kts | 329° |
| 2026-05-05 07:10 | 35.77098 | 140.37717 | 138 ft | 13 kts | 329° |
| 2026-05-05 07:10 | 35.77145 | 140.37589 | 138 ft | 23 kts | 248° |
| 2026-05-05 07:10 | 35.77074 | 140.37416 | 135 ft | 21 kts | 271° |
| 2026-05-05 07:11 | 35.77172 | 140.37280 | 128 ft | 24 kts | 330° |
| 2026-05-05 07:11 | 35.77314 | 140.37177 | 127 ft | 21 kts | 330° |
| 2026-05-05 07:11 | 35.77446 | 140.37082 | 132 ft | 21 kts | 328° |
| 2026-05-05 07:11 | 35.77474 | 140.36935 | 135 ft | 20 kts | 242° |
| 2026-05-05 07:12 | 35.77403 | 140.36867 | 133 ft | 14 kts | 174° |
| 2026-05-05 07:12 | 35.77350 | 140.36896 | 130 ft | 0 kts | 147° |
| 2026-05-05 07:12 | 35.77348 | 140.36897 | 130 ft | 1 kts | 147° |
| 2026-05-05 07:13 | 35.77331 | 140.36909 | 130 ft | 3 kts | 148° |
| 2026-05-05 07:13 | 35.77194 | 140.37010 | 127 ft | 49 kts | 150° |
| 2026-05-05 07:13 | 35.76740 | 140.37335 | 134 ft | 102 kts | 149° |
| 2026-05-05 07:13 | 35.75973 | 140.37894 | 140 ft | 153 kts | 148° |
| 2026-05-05 07:14 | 35.74946 | 140.38655 | 347 ft | 182 kts | 147° |
| 2026-05-05 07:14 | 35.73871 | 140.39476 | 992 ft | 188 kts | 148° |
| 2026-05-05 07:14 | 35.72714 | 140.40308 | 1429 ft | 197 kts | 149° |
| 2026-05-05 07:14 | 35.71460 | 140.41209 | 1430 ft | 218 kts | 148° |
| 2026-05-05 07:15 | 35.70140 | 140.42204 | 1591 ft | 232 kts | 149° |
| 2026-05-05 07:15 | 35.68692 | 140.43205 | 1745 ft | 246 kts | 152° |
| 2026-05-05 07:15 | 35.67052 | 140.43785 | 2210 ft | 248 kts | 180° |
| 2026-05-05 07:15 | 35.65407 | 140.43257 | 2652 ft | 254 kts | 210° |
| 2026-05-05 07:16 | 35.64162 | 140.41699 | 3129 ft | 260 kts | 240° |
| 2026-05-05 07:16 | 35.63716 | 140.39575 | 3600 ft | 266 kts | 269° |
| 2026-05-05 07:16 | 35.64185 | 140.37376 | 4081 ft | 272 kts | 298° |
| 2026-05-05 07:16 | 35.65340 | 140.35535 | 4578 ft | 274 kts | 302° |
| 2026-05-05 07:17 | 35.66446 | 140.33594 | 5102 ft | 276 kts | 309° |
| 2026-05-05 07:17 | 35.67748 | 140.31869 | 5631 ft | 277 kts | 311° |
| 2026-05-05 07:17 | 35.69069 | 140.30167 | 6160 ft | 278 kts | 311° |
| 2026-05-05 07:17 | 35.70398 | 140.28455 | 6692 ft | 279 kts | 311° |
| 2026-05-05 07:18 | 35.71742 | 140.26691 | 7232 ft | 280 kts | 308° |
| 2026-05-05 07:18 | 35.72910 | 140.24812 | 7759 ft | 279 kts | 299° |
| 2026-05-05 07:18 | 35.73667 | 140.22635 | 8272 ft | 277 kts | 286° |
| 2026-05-05 07:18 | 35.74309 | 140.20384 | 8808 ft | 279 kts | 289° |
| 2026-05-05 07:19 | 35.75013 | 140.18164 | 9330 ft | 280 kts | 290° |
| 2026-05-05 07:19 | 35.75733 | 140.15964 | 9848 ft | 282 kts | 290° |
| 2026-05-05 07:19 | 35.76490 | 140.13692 | 10320 ft | 286 kts | 291° |
| 2026-05-05 07:19 | 35.77264 | 140.11392 | 10465 ft | 302 kts | 291° |
| 2026-05-05 07:20 | 35.78102 | 140.08914 | 10631 ft | 319 kts | 291° |
| 2026-05-05 07:20 | 35.78975 | 140.06340 | 10801 ft | 335 kts | 291° |
| 2026-05-05 07:20 | 35.79892 | 140.03635 | 10976 ft | 352 kts | 292° |
| 2026-05-05 07:20 | 35.80866 | 140.00761 | 11154 ft | 369 kts | 292° |
| 2026-05-05 07:21 | 35.81875 | 139.97784 | 11556 ft | 378 kts | 292° |
| 2026-05-05 07:21 | 35.82884 | 139.94804 | 12212 ft | 381 kts | 292° |
| 2026-05-05 07:21 | 35.83906 | 139.91785 | 12865 ft | 383 kts | 292° |
| 2026-05-05 07:21 | 35.84932 | 139.88751 | 13509 ft | 385 kts | 292° |
| 2026-05-05 07:22 | 35.85970 | 139.85677 | 14142 ft | 387 kts | 292° |
| 2026-05-05 07:22 | 35.86903 | 139.82610 | 14729 ft | 388 kts | 286° |
| 2026-05-05 07:22 | 35.87607 | 139.79384 | 15335 ft | 390 kts | 284° |
| 2026-05-05 07:22 | 35.88312 | 139.76149 | 15919 ft | 392 kts | 284° |
| 2026-05-05 07:23 | 35.89006 | 139.72923 | 16489 ft | 394 kts | 284° |
| 2026-05-05 07:23 | 35.89710 | 139.69641 | 17068 ft | 395 kts | 284° |
| 2026-05-05 07:23 | 35.90413 | 139.66357 | 17638 ft | 397 kts | 284° |
| 2026-05-05 07:23 | 35.91127 | 139.63010 | 18222 ft | 399 kts | 284° |
| 2026-05-05 07:24 | 35.91795 | 139.59679 | 18774 ft | 401 kts | 281° |
| 2026-05-05 07:24 | 35.92233 | 139.56271 | 19333 ft | 402 kts | 278° |
| 2026-05-05 07:24 | 35.92662 | 139.52855 | 19885 ft | 404 kts | 278° |
| 2026-05-05 07:24 | 35.93092 | 139.49365 | 20436 ft | 406 kts | 278° |
| 2026-05-05 07:25 | 35.93514 | 139.45929 | 20976 ft | 407 kts | 278° |
| 2026-05-05 07:25 | 35.93941 | 139.42442 | 21504 ft | 409 kts | 278° |
| 2026-05-05 07:25 | 35.94364 | 139.38966 | 21994 ft | 412 kts | 278° |
| 2026-05-05 07:25 | 35.94786 | 139.35492 | 22510 ft | 413 kts | 278° |
| 2026-05-05 07:26 | 35.95216 | 139.31940 | 23002 ft | 415 kts | 278° |
| 2026-05-05 07:26 | 35.95643 | 139.28409 | 23490 ft | 417 kts | 278° |
| 2026-05-05 07:26 | 35.96071 | 139.24860 | 23983 ft | 419 kts | 278° |
| 2026-05-05 07:26 | 35.96500 | 139.21284 | 24453 ft | 420 kts | 278° |
| 2026-05-05 07:27 | 35.96930 | 139.17702 | 24925 ft | 422 kts | 278° |
| 2026-05-05 07:27 | 35.97362 | 139.14082 | 25363 ft | 424 kts | 278° |
| 2026-05-05 07:27 | 35.97789 | 139.10500 | 25809 ft | 426 kts | 278° |
| 2026-05-05 07:27 | 35.98224 | 139.06839 | 26241 ft | 428 kts | 278° |
| 2026-05-05 07:28 | 35.98656 | 139.03198 | 26641 ft | 431 kts | 279° |
| 2026-05-05 07:28 | 35.99088 | 138.99545 | 27078 ft | 432 kts | 279° |
| 2026-05-05 07:28 | 35.99523 | 138.95857 | 27483 ft | 434 kts | 279° |
| 2026-05-05 07:28 | 35.99956 | 138.92163 | 27884 ft | 436 kts | 279° |
| 2026-05-05 07:29 | 36.00337 | 138.88455 | 28301 ft | 438 kts | 275° |
| 2026-05-05 07:29 | 36.00415 | 138.84712 | 28847 ft | 436 kts | 272° |
| 2026-05-05 07:29 | 36.00473 | 138.80957 | 29448 ft | 432 kts | 272° |
| 2026-05-05 07:29 | 36.00522 | 138.77292 | 30035 ft | 429 kts | 272° |
| 2026-05-05 07:30 | 36.00568 | 138.73618 | 30596 ft | 426 kts | 272° |
| 2026-05-05 07:30 | 36.00650 | 138.66374 | 31644 ft | 419 kts | 272° |
| 2026-05-05 07:30 | 36.00688 | 138.62787 | 32092 ft | 417 kts | 272° |
| 2026-05-05 07:31 | 36.00758 | 138.55592 | 32130 ft | 417 kts | 272° |
| 2026-05-05 07:31 | 36.00824 | 138.48413 | 32102 ft | 414 kts | 272° |
| 2026-05-05 07:32 | 36.00884 | 138.41286 | 32093 ft | 415 kts | 272° |
| 2026-05-05 07:32 | 36.00941 | 138.34161 | 32094 ft | 415 kts | 271° |
| 2026-05-05 07:33 | 36.00992 | 138.27043 | 32103 ft | 415 kts | 271° |
| 2026-05-05 07:33 | 36.01040 | 138.19896 | 32103 ft | 415 kts | 271° |
| 2026-05-05 07:34 | 36.01083 | 138.12744 | 32102 ft | 415 kts | 271° |
| 2026-05-05 07:34 | 36.01123 | 138.05568 | 32100 ft | 415 kts | 271° |
| 2026-05-05 07:35 | 36.01157 | 137.98421 | 32099 ft | 415 kts | 271° |
| 2026-05-05 07:35 | 36.01188 | 137.91272 | 32100 ft | 415 kts | 271° |
| 2026-05-05 07:36 | 36.01214 | 137.84085 | 32097 ft | 415 kts | 271° |
| 2026-05-05 07:36 | 36.01236 | 137.76945 | 32098 ft | 415 kts | 271° |
| 2026-05-05 07:37 | 36.01253 | 137.69829 | 32095 ft | 415 kts | 271° |
| 2026-05-05 07:37 | 36.01267 | 137.62685 | 32094 ft | 415 kts | 271° |
| 2026-05-05 07:38 | 36.01276 | 137.55501 | 32093 ft | 415 kts | 271° |
| 2026-05-05 07:38 | 36.01281 | 137.48318 | 32094 ft | 415 kts | 271° |
| 2026-05-05 07:39 | 36.01281 | 137.41177 | 32101 ft | 415 kts | 271° |
| 2026-05-05 07:39 | 36.01277 | 137.34042 | 32112 ft | 414 kts | 271° |
| 2026-05-05 07:40 | 36.01269 | 137.26884 | 32130 ft | 414 kts | 271° |
| 2026-05-05 07:40 | 36.01257 | 137.19792 | 32129 ft | 414 kts | 271° |
| 2026-05-05 07:41 | 36.01240 | 137.12663 | 32128 ft | 414 kts | 271° |
| 2026-05-05 07:41 | 36.01219 | 137.05562 | 32128 ft | 414 kts | 271° |
| 2026-05-05 07:42 | 36.01194 | 136.98451 | 32130 ft | 414 kts | 271° |
| 2026-05-05 07:42 | 36.01165 | 136.91363 | 32138 ft | 413 kts | 271° |
| 2026-05-05 07:43 | 36.01131 | 136.84238 | 32145 ft | 413 kts | 271° |
| 2026-05-05 07:43 | 36.01094 | 136.77159 | 32151 ft | 413 kts | 271° |
| 2026-05-05 07:44 | 36.01052 | 136.70026 | 32149 ft | 412 kts | 271° |
| 2026-05-05 07:44 | 36.01006 | 136.62875 | 32149 ft | 413 kts | 271° |
| 2026-05-05 07:45 | 36.00955 | 136.55754 | 32148 ft | 413 kts | 271° |
| 2026-05-05 07:45 | 36.00901 | 136.48683 | 32147 ft | 413 kts | 271° |
| 2026-05-05 07:46 | 36.00842 | 136.41553 | 32145 ft | 413 kts | 271° |
| 2026-05-05 07:46 | 36.00779 | 136.34480 | 32146 ft | 412 kts | 270° |
| 2026-05-05 07:47 | 36.00713 | 136.27316 | 32157 ft | 414 kts | 270° |
| 2026-05-05 07:47 | 36.00642 | 136.20204 | 32157 ft | 413 kts | 270° |
| 2026-05-05 07:48 | 36.00567 | 136.13113 | 32157 ft | 413 kts | 270° |
| 2026-05-05 07:48 | 36.00487 | 136.06026 | 32155 ft | 413 kts | 270° |
| 2026-05-05 07:49 | 36.00404 | 135.98982 | 32154 ft | 413 kts | 270° |
| 2026-05-05 07:49 | 36.00315 | 135.91855 | 32152 ft | 413 kts | 270° |
| 2026-05-05 07:50 | 36.00222 | 135.84799 | 32152 ft | 413 kts | 270° |
| 2026-05-05 07:50 | 36.00125 | 135.77704 | 32151 ft | 413 kts | 270° |
| 2026-05-05 07:51 | 36.00024 | 135.70634 | 32151 ft | 413 kts | 270° |
| 2026-05-05 07:51 | 35.99918 | 135.63509 | 32149 ft | 413 kts | 270° |
| 2026-05-05 07:52 | 35.99810 | 135.56409 | 32144 ft | 413 kts | 270° |
| 2026-05-05 07:52 | 35.99697 | 135.49352 | 32127 ft | 413 kts | 270° |
| 2026-05-05 07:53 | 35.99579 | 135.42233 | 32110 ft | 413 kts | 270° |
| 2026-05-05 07:53 | 35.99458 | 135.35158 | 32094 ft | 414 kts | 270° |
| 2026-05-05 07:54 | 35.99330 | 135.27972 | 32103 ft | 414 kts | 270° |
| 2026-05-05 07:54 | 35.99201 | 135.20905 | 32102 ft | 413 kts | 270° |
| 2026-05-05 07:55 | 35.99067 | 135.13818 | 32102 ft | 413 kts | 270° |
| 2026-05-05 07:55 | 35.98929 | 135.06685 | 32101 ft | 414 kts | 270° |
| 2026-05-05 07:56 | 35.98787 | 134.99617 | 32100 ft | 414 kts | 269° |
| 2026-05-05 07:56 | 35.98640 | 134.92520 | 32096 ft | 414 kts | 269° |
| 2026-05-05 07:57 | 35.98488 | 134.85387 | 32099 ft | 414 kts | 269° |
| 2026-05-05 07:57 | 35.98331 | 134.78253 | 32100 ft | 414 kts | 269° |
| 2026-05-05 07:58 | 35.98172 | 134.71149 | 32096 ft | 414 kts | 269° |
| 2026-05-05 07:58 | 35.98007 | 134.64058 | 32099 ft | 415 kts | 269° |
| 2026-05-05 07:59 | 35.97838 | 134.56912 | 32092 ft | 414 kts | 269° |
| 2026-05-05 07:59 | 35.97664 | 134.49821 | 32094 ft | 414 kts | 269° |
| 2026-05-05 08:00 | 35.97488 | 134.42738 | 32094 ft | 414 kts | 269° |
| 2026-05-05 08:00 | 35.97307 | 134.35623 | 32092 ft | 414 kts | 269° |
| 2026-05-05 08:01 | 35.97121 | 134.28523 | 32104 ft | 414 kts | 268° |
| 2026-05-05 08:01 | 35.96933 | 134.21420 | 32100 ft | 414 kts | 268° |
| 2026-05-05 08:02 | 35.96742 | 134.14426 | 32103 ft | 413 kts | 268° |
| 2026-05-05 08:02 | 35.96544 | 134.07306 | 32100 ft | 414 kts | 269° |
| 2026-05-05 08:03 | 35.96343 | 134.00191 | 32099 ft | 414 kts | 268° |
| 2026-05-05 08:03 | 35.96138 | 133.93121 | 32101 ft | 413 kts | 269° |
| 2026-05-05 08:04 | 35.95927 | 133.86028 | 32099 ft | 414 kts | 269° |
| 2026-05-05 08:04 | 35.95711 | 133.78932 | 32099 ft | 414 kts | 269° |
| 2026-05-05 08:05 | 35.95489 | 133.71817 | 32096 ft | 414 kts | 268° |
| 2026-05-05 08:05 | 35.95267 | 133.64728 | 32095 ft | 414 kts | 269° |
| 2026-05-05 08:06 | 35.95040 | 133.57628 | 32095 ft | 414 kts | 269° |
| 2026-05-05 08:06 | 35.94805 | 133.50549 | 32093 ft | 414 kts | 269° |
| 2026-05-05 08:07 | 35.94567 | 133.43420 | 32094 ft | 414 kts | 269° |
| 2026-05-05 08:07 | 35.94327 | 133.36310 | 32091 ft | 414 kts | 269° |
| 2026-05-05 08:08 | 35.94082 | 133.29178 | 32102 ft | 415 kts | 268° |
| 2026-05-05 08:08 | 35.93829 | 133.22043 | 32105 ft | 414 kts | 268° |
| 2026-05-05 08:09 | 35.93577 | 133.14983 | 32098 ft | 414 kts | 268° |
| 2026-05-05 08:09 | 35.93320 | 133.07880 | 32104 ft | 413 kts | 268° |
| 2026-05-05 08:10 | 35.93059 | 133.00819 | 32099 ft | 412 kts | 268° |
| 2026-05-05 08:10 | 35.92795 | 132.93756 | 32103 ft | 411 kts | 268° |
| 2026-05-05 08:11 | 35.92528 | 132.86716 | 32096 ft | 411 kts | 268° |
| 2026-05-05 08:11 | 35.92252 | 132.79639 | 32094 ft | 412 kts | 268° |
| 2026-05-05 08:12 | 35.91978 | 132.72594 | 32096 ft | 411 kts | 268° |
| 2026-05-05 08:12 | 35.91694 | 132.65533 | 32095 ft | 411 kts | 268° |
| 2026-05-05 08:13 | 35.91412 | 132.58504 | 32098 ft | 412 kts | 268° |
| 2026-05-05 08:13 | 35.91121 | 132.51415 | 32091 ft | 411 kts | 268° |
| 2026-05-05 08:14 | 35.90826 | 132.44376 | 32097 ft | 411 kts | 268° |
| 2026-05-05 08:14 | 35.90532 | 132.37344 | 32095 ft | 411 kts | 268° |
| 2026-05-05 08:15 | 35.90227 | 132.30263 | 32106 ft | 412 kts | 268° |
| 2026-05-05 08:15 | 35.89920 | 132.23201 | 32108 ft | 412 kts | 268° |
| 2026-05-05 08:16 | 35.89610 | 132.16145 | 32108 ft | 412 kts | 268° |
| 2026-05-05 08:16 | 35.89298 | 132.09120 | 32101 ft | 411 kts | 268° |
| 2026-05-05 08:17 | 35.88980 | 132.02057 | 32105 ft | 412 kts | 267° |
| 2026-05-05 08:17 | 35.88657 | 131.94961 | 32102 ft | 411 kts | 267° |
| 2026-05-05 08:18 | 35.88330 | 131.87911 | 32100 ft | 411 kts | 267° |
| 2026-05-05 08:18 | 35.87997 | 131.80887 | 32097 ft | 412 kts | 268° |
| 2026-05-05 08:19 | 35.87664 | 131.73831 | 32098 ft | 411 kts | 267° |
| 2026-05-05 08:19 | 35.87323 | 131.66771 | 32096 ft | 411 kts | 268° |
| 2026-05-05 08:20 | 35.86979 | 131.59738 | 32092 ft | 411 kts | 267° |
| 2026-05-05 08:20 | 35.86635 | 131.52730 | 32097 ft | 411 kts | 267° |
| 2026-05-05 08:21 | 35.86285 | 131.45688 | 32093 ft | 411 kts | 267° |
| 2026-05-05 08:21 | 35.85926 | 131.38609 | 32088 ft | 412 kts | 267° |
| 2026-05-05 08:22 | 35.85570 | 131.31604 | 32109 ft | 412 kts | 267° |
| 2026-05-05 08:22 | 35.85207 | 131.24550 | 32102 ft | 412 kts | 267° |
| 2026-05-05 08:23 | 35.84837 | 131.17467 | 32104 ft | 411 kts | 267° |
| 2026-05-05 08:23 | 35.84467 | 131.10458 | 32102 ft | 411 kts | 267° |
| 2026-05-05 08:24 | 35.84088 | 131.03386 | 32102 ft | 411 kts | 267° |
| 2026-05-05 08:24 | 35.83269 | 130.96614 | 31833 ft | 404 kts | 218° |